| time (UTC) | temp F | wind direction | speed MPH | gust MPH | rain 1hr in | rain 24hr in | rain mn in | humidity % | barometer mb |
| 20260510104511 | 44 | 351 | 0.0 | 0.0 | 0.00 | 0.10 | 0.10 | 95 | 1009.8 |
| 20260510103007 | 44 | 352 | 0.0 | 0.0 | 0.01 | 0.10 | 0.10 | 94 | 1009.7 |
| 20260510101506 | 44 | 334 | 0.0 | 0.0 | 0.01 | 0.10 | 0.10 | 94 | 1009.4 |
| 20260510100006 | 44 | 334 | 0.0 | 0.0 | 0.01 | 0.10 | 0.10 | 94 | 1009.1 |
| 20260510094504 | 44 | 334 | 0.0 | 0.0 | 0.01 | 0.10 | 0.10 | 94 | 1008.8 |
| 20260510093119 | 45 | 333 | 0.0 | 0.0 | 0.00 | 0.09 | 0.09 | 94 | 1008.4 |
| 20260510091600 | 45 | 357 | 0.0 | 0.0 | 0.00 | 0.09 | 0.09 | 93 | 1008.0 |
| 20260510090056 | 45 | 328 | 0.0 | 0.0 | 0.01 | 0.09 | 0.09 | 93 | 1007.7 |
| 20260510084559 | 45 | 148 | 0.0 | 0.0 | 0.01 | 0.09 | 0.09 | 95 | 1007.5 |
| 20260510083054 | 45 | 347 | 0.0 | 0.0 | 0.02 | 0.09 | 0.09 | 94 | 1006.9 |
| 20260510081548 | 45 | 358 | 0.0 | 0.0 | 0.01 | 0.09 | 0.09 | 94 | 1006.5 |
| 20260510080047 | 45 | 337 | 0.0 | 0.0 | 0.01 | 0.09 | 0.09 | 94 | 1006.5 |
| 20260510074547 | 45 | 328 | 0.0 | 0.0 | 0.01 | 0.09 | 0.09 | 94 | 1006.3 |
| 20260510073046 | 45 | 312 | 1.0 | 4.0 | 0.01 | 0.08 | 0.08 | 94 | 1005.9 |
| 20260510071549 | 45 | 356 | 0.0 | 0.0 | 0.01 | 0.08 | 0.08 | 95 | 1005.6 |
| 20260510070037 | 45 | 352 | 0.0 | 0.0 | 0.01 | 0.08 | 0.08 | 96 | 1005.1 |
| 20260510064534 | 45 | 351 | 0.0 | 0.0 | 0.02 | 0.08 | 0.08 | 96 | 1004.8 |
| 20260510063031 | 45 | 325 | 0.0 | 0.0 | 0.01 | 0.07 | 0.07 | 96 | 1004.4 |
| 20260510061529 | 45 | 325 | 0.0 | 0.0 | 0.01 | 0.07 | 0.07 | 96 | 1004.1 |
| 20260510060027 | 45 | 325 | 0.0 | 0.0 | 0.01 | 0.07 | 0.07 | 96 | 1003.8 |
| 20260510054526 | 45 | 182 | 0.0 | 0.0 | 0.01 | 0.06 | 0.06 | 96 | 1003.6 |
| 20260510053044 | 45 | 178 | 0.0 | 1.0 | 0.02 | 0.06 | 0.06 | 95 | 1003.2 |
| 20260510051520 | 45 | 201 | 0.0 | 3.0 | 0.03 | 0.06 | 0.06 | 95 | 1002.9 |
| 20260510050017 | 45 | 184 | 0.0 | 4.0 | 0.04 | 0.06 | 0.06 | 95 | 1002.6 |
| 20260510044514 | 45 | 178 | 2.0 | 9.0 | 0.03 | 0.06 | 0.06 | 95 | 1002.2 |
| 20260510043014 | 46 | 139 | 3.0 | 6.0 | 0.02 | 0.04 | 0.04 | 94 | 1001.8 |
| 20260510041509 | 47 | 164 | 0.0 | 5.0 | 0.00 | 0.02 | 0.02 | 93 | 1001.5 |
| 20260510040007 | 47 | 148 | 1.0 | 8.0 | 0.00 | 0.02 | 0.02 | 90 | 1001.1 |
| 20260510034502 | 48 | 168 | 2.0 | 7.0 | 0.00 | 0.02 | 0.02 | 86 | 1000.7 |
| 20260510033113 | 48 | 178 | 2.0 | 4.0 | 0.00 | 0.02 | 0.02 | 87 | 1000.3 |
| 20260510031557 | 47 | 136 | 0.0 | 1.0 | 0.00 | 0.02 | 0.02 | 90 | 1000.0 |
| 20260510030058 | 47 | 163 | 1.0 | 4.0 | 0.01 | 0.02 | 0.02 | 90 | 999.7 |
| 20260510024553 | 47 | 191 | 3.0 | 7.0 | 0.01 | 0.02 | 0.02 | 91 | 999.4 |
| 20260510023050 | 47 | 180 | 1.0 | 3.0 | 0.01 | 0.02 | 0.02 | 93 | 999.2 |
| 20260510021551 | 47 | 169 | 1.0 | 4.0 | 0.01 | 0.02 | 0.02 | 93 | 998.8 |
| 20260510020045 | 47 | 164 | 1.0 | 3.0 | 0.01 | 0.02 | 0.02 | 93 | 998.6 |
| 20260510014544 | 48 | 152 | 1.0 | 2.0 | 0.01 | 0.02 | 0.02 | 93 | 998.2 |
| 20260510013049 | 47 | 171 | 0.0 | 4.0 | 0.01 | 0.02 | 0.02 | 93 | 998.1 |
| 20260510011544 | 47 | 169 | 0.0 | 3.0 | 0.02 | 0.02 | 0.02 | 93 | 998.0 |
| 20260510010039 | 48 | 176 | 0.0 | 3.0 | 0.01 | 0.01 | 0.01 | 90 | 997.9 |
| 20260510004538 | 47 | 173 | 2.0 | 11.0 | 0.01 | 0.01 | 0.01 | 91 | 997.8 |
| 20260510003038 | 47 | 207 | 0.0 | 3.0 | 0.01 | 0.01 | 0.01 | 92 | 998.0 |
| 20260510001538 | 48 | 218 | 4.0 | 11.0 | 0.00 | 0.00 | 0.00 | 91 | 997.8 |
| 20260510000044 | 49 | 209 | 3.0 | 7.0 | 0.00 | 0.00 | 0.00 | 90 | 997.4 |
| 20260509234529 | 48 | 163 | 5.0 | 12.0 | 0.00 | 0.00 | 0.00 | 90 | 997.1 |
| 20260509233026 | 49 | 164 | 9.0 | 17.0 | 0.00 | 0.00 | 0.00 | 89 | 997.1 |
| 20260509231523 | 50 | 167 | 5.0 | 13.0 | 0.00 | 0.00 | 0.00 | 90 | 997.0 |
| 20260509230020 | 50 | 155 | 9.0 | 15.0 | 0.00 | 0.00 | 0.00 | 87 | 996.6 |
| 20260509224517 | 51 | 124 | 1.0 | 9.0 | 0.00 | 0.00 | 0.00 | 87 | 996.5 |
| 20260509223016 | 51 | 191 | 4.0 | 10.0 | 0.00 | 0.00 | 0.00 | 89 | 996.2 |
| 20260509221515 | 52 | 169 | 6.0 | 11.0 | 0.00 | 0.00 | 0.00 | 88 | 995.3 |
| 20260509220017 | 52 | 174 | 5.0 | 14.0 | 0.00 | 0.00 | 0.00 | 89 | 994.7 |
| 20260509214509 | 52 | 161 | 7.0 | 15.0 | 0.00 | 0.00 | 0.00 | 90 | 994.4 |
| 20260509213008 | 52 | 191 | 7.0 | 17.0 | 0.00 | 0.00 | 0.00 | 87 | 994.0 |
| 20260509211501 | 55 | 148 | 3.0 | 10.0 | 0.00 | 0.00 | 0.00 | 73 | 993.5 |
| 20260509210107 | 56 | 171 | 0.0 | 3.0 | 0.00 | 0.00 | 0.00 | 65 | 992.8 |
| 20260509204555 | 55 | 144 | 0.0 | 2.0 | 0.00 | 0.00 | 0.00 | 65 | 992.1 |
| 20260509203102 | 54 | 126 | 0.0 | 1.0 | 0.00 | 0.00 | 0.00 | 65 | 991.7 |
| 20260509201552 | 54 | 247 | 0.0 | 2.0 | 0.00 | 0.00 | 0.00 | 61 | 991.6 |
| 20260509200054 | 52 | 278 | 0.0 | 1.0 | 0.00 | 0.00 | 0.00 | 64 | 991.1 |
| 20260509194552 | 55 | 279 | 0.0 | 1.0 | 0.00 | 0.00 | 0.00 | 59 | 990.8 |
| 20260509193056 | 57 | 279 | 0.0 | 1.0 | 0.00 | 0.00 | 0.00 | 54 | 990.6 |
| 20260509191600 | 59 | 308 | 1.0 | 5.0 | 0.00 | 0.00 | 0.00 | 51 | 990.4 |
| 20260509190054 | 59 | 313 | 4.0 | 10.0 | 0.00 | 0.00 | 0.00 | 52 | 990.1 |
| 20260509184558 | 58 | 346 | 3.0 | 7.0 | 0.00 | 0.00 | 0.00 | 54 | 989.9 |
| 20260509183056 | 58 | 321 | 3.0 | 7.0 | 0.00 | 0.00 | 0.00 | 54 | 989.8 |
| 20260509181547 | 58 | 347 | 5.0 | 9.0 | 0.00 | 0.00 | 0.00 | 53 | 989.6 |
| 20260509180046 | 59 | 346 | 6.0 | 11.0 | 0.00 | 0.00 | 0.00 | 51 | 989.4 |
| 20260509174600 | 60 | 347 | 5.0 | 14.0 | 0.00 | 0.00 | 0.00 | 50 | 989.4 |
| 20260509173050 | 59 | 345 | 4.0 | 9.0 | 0.00 | 0.00 | 0.00 | 51 | 989.2 |
| 20260509171544 | 60 | 310 | 5.0 | 12.0 | 0.00 | 0.00 | 0.00 | 48 | 989.1 |
| 20260509170042 | 60 | 313 | 8.0 | 13.0 | 0.00 | 0.00 | 0.00 | 48 | 988.9 |
| 20260509164538 | 57 | 344 | 5.0 | 10.0 | 0.00 | 0.00 | 0.00 | 53 | 989.0 |
| 20260509163040 | 55 | 360 | 3.0 | 5.0 | 0.00 | 0.00 | 0.00 | 60 | 989.0 |
| 20260509161535 | 55 | 358 | 3.0 | 5.0 | 0.00 | 0.00 | 0.00 | 61 | 988.8 |
| 20260509160034 | 56 | 6 | 3.0 | 7.0 | 0.00 | 0.00 | 0.00 | 59 | 989.1 |
| 20260509154533 | 57 | 341 | 5.0 | 13.0 | 0.00 | 0.00 | 0.00 | 56 | 989.0 |
| 20260509153043 | 57 | 347 | 7.0 | 12.0 | 0.00 | 0.00 | 0.00 | 57 | 989.1 |
| 20260509151529 | 56 | 317 | 4.0 | 11.0 | 0.00 | 0.00 | 0.00 | 59 | 989.2 |
| 20260509150026 | 56 | 351 | 7.0 | 11.0 | 0.00 | 0.00 | 0.00 | 59 | 989.4 |
| 20260509144530 | 55 | 342 | 5.0 | 10.0 | 0.00 | 0.00 | 0.00 | 61 | 989.4 |
| 20260509143022 | 56 | 329 | 5.0 | 15.0 | 0.00 | 0.00 | 0.00 | 59 | 989.6 |
| 20260509141518 | 55 | 349 | 7.0 | 13.0 | 0.00 | 0.00 | 0.00 | 61 | 990.0 |
| 20260509140015 | 54 | 13 | 4.0 | 9.0 | 0.00 | 0.00 | 0.00 | 63 | 990.4 |
| 20260509134513 | 53 | 354 | 5.0 | 9.0 | 0.00 | 0.00 | 0.00 | 64 | 990.3 |
| 20260509133012 | 53 | 3 | 4.0 | 8.0 | 0.00 | 0.00 | 0.00 | 64 | 990.7 |
| 20260509131513 | 53 | 18 | 3.0 | 7.0 | 0.00 | 0.00 | 0.00 | 63 | 990.6 |
| 20260509130022 | 52 | 358 | 2.0 | 4.0 | 0.00 | 0.00 | 0.00 | 66 | 990.7 |
| 20260509124508 | 52 | 343 | 2.0 | 5.0 | 0.00 | 0.00 | 0.00 | 64 | 991.0 |
| 20260509123005 | 54 | 12 | 2.0 | 6.0 | 0.00 | 0.00 | 0.00 | 61 | 991.2 |
| 20260509121505 | 54 | 344 | 3.0 | 8.0 | 0.00 | 0.00 | 0.00 | 60 | 991.4 |
| 20260509120100 | 53 | 8 | 4.0 | 8.0 | 0.00 | 0.00 | 0.00 | 65 | 991.6 |
| 20260509114603 | 50 | 19 | 2.0 | 4.0 | 0.00 | 0.00 | 0.00 | 68 | 991.5 |
| 20260509113059 | 53 | 33 | 2.0 | 3.0 | 0.00 | 0.00 | 0.00 | 59 | 991.7 |
| 20260509111552 | 52 | 331 | 1.0 | 3.0 | 0.00 | 0.00 | 0.00 | 61 | 991.7 |
| 20260509110050 | 52 | 340 | 1.0 | 3.0 | 0.00 | 0.00 | 0.00 | 61 | 991.7 |